createdAt,value
2022-11-21T00:00:56.201Z,-7.30
2022-11-21T00:03:43.677Z,-7.30
2022-11-21T00:06:30.852Z,-7.40
2022-11-21T00:09:19.747Z,-7.40
2022-11-21T00:12:07.613Z,-7.40
2022-11-21T00:14:55.258Z,-7.40
2022-11-21T00:17:42.777Z,-7.40
2022-11-21T00:20:30.033Z,-7.40
2022-11-21T00:23:17.770Z,-7.40
2022-11-21T00:26:07.263Z,-7.40
2022-11-21T00:28:54.763Z,-7.50
2022-11-21T00:31:42.344Z,-7.50
2022-11-21T00:34:30.150Z,-7.50
2022-11-21T00:37:17.687Z,-7.50
2022-11-21T00:40:05.291Z,-7.50
2022-11-21T00:42:54.188Z,-7.50
2022-11-21T00:45:41.938Z,-7.50
2022-11-21T00:48:29.514Z,-7.50
2022-11-21T00:51:16.916Z,-7.50
2022-11-21T00:54:04.197Z,-7.60
2022-11-21T00:56:51.499Z,-7.50
2022-11-21T00:59:40.271Z,-7.50
2022-11-21T01:02:27.402Z,-7.50
2022-11-21T01:05:14.905Z,-7.40
2022-11-21T01:08:02.500Z,-7.30
2022-11-21T01:10:49.819Z,-7.20
2022-11-21T01:13:37.850Z,-7.10
2022-11-21T01:16:28.252Z,-7.00
2022-11-21T01:19:15.777Z,-6.80
2022-11-21T01:22:03.349Z,-6.70
2022-11-21T01:24:50.855Z,-6.50
2022-11-21T01:27:38.201Z,-6.30
2022-11-21T01:30:25.811Z,-6.10
2022-11-21T01:33:14.624Z,-5.90
2022-11-21T01:36:07.418Z,-5.70
2022-11-21T01:38:55.731Z,-5.60
2022-11-21T01:41:44.285Z,-5.40
2022-11-21T01:44:47.247Z,-5.30
2022-11-21T01:47:34.430Z,-5.10
2022-11-21T01:50:22.964Z,-5.00
2022-11-21T01:53:10.429Z,-4.80
2022-11-21T01:55:57.847Z,-4.70
2022-11-21T01:58:47.233Z,-4.50
2022-11-21T02:01:35.744Z,-4.30
2022-11-21T02:04:23.679Z,-4.20
2022-11-21T02:07:13.358Z,-4.00
2022-11-21T02:10:02.221Z,-3.90
2022-11-21T02:12:51.573Z,-3.70
2022-11-21T02:15:39.147Z,-3.60
2022-11-21T02:18:26.417Z,-3.50
2022-11-21T02:21:18.761Z,-3.40
2022-11-21T02:24:11.436Z,-3.40
2022-11-21T02:27:00.973Z,-3.30
2022-11-21T02:29:48.550Z,-3.20
2022-11-21T02:32:36.744Z,-3.10
2022-11-21T02:35:24.066Z,-3.10
2022-11-21T02:38:14.548Z,-3.00
2022-11-21T02:41:08.810Z,-3.00
2022-11-21T02:44:04.605Z,-2.90
2022-11-21T02:46:53.303Z,-2.80
2022-11-21T02:49:52.092Z,-2.80
2022-11-21T02:52:39.578Z,-2.70
2022-11-21T02:55:27.280Z,-2.60
2022-11-21T02:58:15.057Z,-2.60
2022-11-21T03:01:06.837Z,-2.50
2022-11-21T03:03:54.471Z,-2.50
2022-11-21T03:06:41.817Z,-2.40
2022-11-21T03:09:29.383Z,-2.30
2022-11-21T03:12:17.238Z,-2.30
2022-11-21T03:15:05.002Z,-2.20
2022-11-21T03:17:53.793Z,-2.20
2022-11-21T03:20:41.832Z,-2.20
2022-11-21T03:23:29.287Z,-2.10
2022-11-21T03:26:16.952Z,-2.10
2022-11-21T03:29:04.943Z,-2.00
2022-11-21T03:31:52.472Z,-2.00
2022-11-21T03:34:41.765Z,-1.90
2022-11-21T03:37:29.503Z,-1.90
2022-11-21T03:40:17.471Z,-1.80
2022-11-21T03:43:06.790Z,-1.80
2022-11-21T03:45:54.238Z,-1.80
2022-11-21T03:48:42.012Z,-1.70
2022-11-21T03:51:31.064Z,-1.70
2022-11-21T03:54:18.317Z,-1.60
2022-11-21T03:57:05.785Z,-1.60
2022-11-21T03:59:53.755Z,-1.50
2022-11-21T04:02:41.526Z,-1.50
2022-11-21T04:05:29.248Z,-1.40
2022-11-21T04:08:18.482Z,-1.40
2022-11-21T04:11:06.700Z,-1.40
2022-11-21T04:13:54.497Z,-1.50
2022-11-21T04:16:42.046Z,-1.50
2022-11-21T04:19:29.656Z,-1.50
2022-11-21T04:22:17.018Z,-1.50
2022-11-21T04:25:06.011Z,-1.50
2022-11-21T04:27:56.967Z,-1.50
2022-11-21T04:30:44.549Z,-1.40
2022-11-21T04:33:31.775Z,-1.40
2022-11-21T04:36:19.124Z,-1.40
2022-11-21T04:39:06.527Z,-1.30
2022-11-21T04:41:55.468Z,-1.30
2022-11-21T04:44:42.601Z,-1.30
2022-11-21T04:47:30.180Z,-1.30
2022-11-21T04:50:19.025Z,-1.30
2022-11-21T04:53:06.884Z,-1.30
2022-11-21T04:55:54.598Z,-1.40
2022-11-21T04:58:44.696Z,-1.40
2022-11-21T05:01:32.534Z,-1.40
2022-11-21T05:04:20.156Z,-1.30
2022-11-21T05:07:07.673Z,-1.30
2022-11-21T05:09:55.258Z,-1.30
2022-11-21T05:13:00.574Z,-1.20
2022-11-21T05:15:51.677Z,-1.20
2022-11-21T05:18:39.572Z,-1.10
2022-11-21T05:21:27.426Z,-1.10
2022-11-21T05:24:15.044Z,-1.10
2022-11-21T05:27:02.873Z,-1.00
2022-11-21T05:29:50.608Z,-1.00
2022-11-21T05:32:39.742Z,-1.00
2022-11-21T05:35:27.544Z,-1.00
2022-11-21T05:38:15.292Z,-0.90
2022-11-21T05:41:05.894Z,-0.90
2022-11-21T05:43:53.730Z,-0.90
2022-11-21T05:46:41.236Z,-0.90
2022-11-21T05:49:30.523Z,-0.80
2022-11-21T05:52:18.007Z,-0.80
2022-11-21T05:55:06.458Z,-0.80
2022-11-21T05:57:54.105Z,-0.80
2022-11-21T06:00:41.852Z,-0.70
2022-11-21T06:03:31.283Z,-0.70
2022-11-21T06:06:24.696Z,-0.70
2022-11-21T06:09:13.152Z,-0.70
2022-11-21T06:12:00.851Z,-0.70
2022-11-21T06:14:48.373Z,-0.80
2022-11-21T06:17:36.392Z,-0.80
2022-11-21T06:20:24.069Z,-0.80
2022-11-21T06:23:13.104Z,-0.80
2022-11-21T06:26:01.329Z,-0.80
2022-11-21T06:28:48.981Z,-0.80
2022-11-21T06:31:36.412Z,-0.80
2022-11-21T06:34:24.283Z,-0.80
2022-11-21T06:37:11.838Z,-0.80
2022-11-21T06:40:00.916Z,-0.80
2022-11-21T06:42:48.810Z,-0.90
2022-11-21T06:45:35.975Z,-0.90
2022-11-21T06:48:23.342Z,-0.90
2022-11-21T06:51:14.093Z,-0.90
2022-11-21T06:54:01.674Z,-0.90
2022-11-21T06:56:53.050Z,-0.90
2022-11-21T06:59:40.210Z,-0.90
2022-11-21T07:02:28.359Z,-0.90
2022-11-21T07:05:16.777Z,-0.90
2022-11-21T07:08:06.925Z,-0.90
2022-11-21T07:11:24.303Z,-0.80
2022-11-21T07:14:10.319Z,-0.80
2022-11-21T07:16:58.748Z,-0.70
2022-11-21T07:19:46.223Z,-0.60
2022-11-21T07:22:33.417Z,-0.60
2022-11-21T07:25:20.541Z,-0.50
2022-11-21T07:28:08.850Z,-0.40
2022-11-21T07:30:58.633Z,-0.40
2022-11-21T07:33:46.888Z,-0.30
2022-11-21T07:36:36.183Z,-0.20
2022-11-21T07:39:23.538Z,-0.20
2022-11-21T07:42:11.015Z,-0.20
2022-11-21T07:44:58.574Z,-0.10
2022-11-21T07:47:47.510Z,0.00
2022-11-21T07:50:35.404Z,0.10
2022-11-21T07:53:24.124Z,0.20
2022-11-21T07:56:11.865Z,0.30
2022-11-21T07:58:59.699Z,0.40
2022-11-21T08:01:48.258Z,0.50
2022-11-21T08:04:37.157Z,0.60
2022-11-21T08:07:24.995Z,0.70
2022-11-21T08:10:12.563Z,0.70
2022-11-21T08:13:00.216Z,0.80
2022-11-21T08:15:48.071Z,0.80
2022-11-21T08:18:35.811Z,0.90
2022-11-21T08:21:25.043Z,0.90
2022-11-21T08:24:14.885Z,1.00
2022-11-21T08:27:02.771Z,1.00
2022-11-21T08:29:50.263Z,1.00
2022-11-21T08:32:38.335Z,1.10
2022-11-21T08:35:26.236Z,1.10
2022-11-21T08:38:15.601Z,1.10
2022-11-21T08:41:20.614Z,1.20
2022-11-21T08:44:13.660Z,1.20
2022-11-21T08:47:02.474Z,1.20
2022-11-21T08:49:50.144Z,1.20
2022-11-21T08:52:37.961Z,1.20
2022-11-21T08:55:27.152Z,1.30
2022-11-21T08:58:14.640Z,1.30
2022-11-21T09:01:02.347Z,1.30
2022-11-21T09:03:50.172Z,1.40
2022-11-21T09:06:38.005Z,1.40
2022-11-21T09:09:25.870Z,1.40
2022-11-21T09:12:14.814Z,1.40
2022-11-21T09:15:19.756Z,1.40
2022-11-21T09:18:08.242Z,1.50
2022-11-21T09:20:56.604Z,1.50
2022-11-21T09:23:43.886Z,1.60
2022-11-21T09:26:31.391Z,1.60
2022-11-21T09:29:20.243Z,1.70
2022-11-21T09:32:07.795Z,1.70
2022-11-21T09:34:55.116Z,1.80
2022-11-21T09:37:42.386Z,1.90
2022-11-21T09:40:30.570Z,2.00
2022-11-21T09:43:36.062Z,2.00
2022-11-21T09:46:27.642Z,2.10
2022-11-21T09:49:15.854Z,2.10
2022-11-21T09:52:03.327Z,2.10
2022-11-21T09:54:51.914Z,2.20
2022-11-21T09:57:39.466Z,2.20
2022-11-21T10:00:26.818Z,2.30
2022-11-21T10:07:15.708Z,2.40
2022-11-21T10:10:20.407Z,2.60
2022-11-21T10:13:15.165Z,2.70
2022-11-21T10:16:05.165Z,2.80
2022-11-21T10:19:07.495Z,3.00
2022-11-21T10:22:02.383Z,3.10
2022-11-21T10:24:56.336Z,3.30
2022-11-21T10:27:47.841Z,3.50
2022-11-21T10:30:35.833Z,3.60
2022-11-21T10:33:27.723Z,3.80
2022-11-21T10:36:21.935Z,3.80
2022-11-21T10:39:14.888Z,3.80
2022-11-21T10:42:07.031Z,3.90
2022-11-21T10:45:12.071Z,4.00
2022-11-21T10:48:02.705Z,4.00
2022-11-21T10:51:26.504Z,4.10
2022-11-21T10:54:34.311Z,4.20
2022-11-21T10:57:25.729Z,4.30
2022-11-21T11:00:30.994Z,4.30
2022-11-21T11:03:18.836Z,4.30
2022-11-21T11:06:06.594Z,4.40
2022-11-21T11:08:53.857Z,4.40
2022-11-21T11:11:41.533Z,4.40
2022-11-21T11:14:32.410Z,4.40
2022-11-21T11:17:27.599Z,4.40
2022-11-21T11:20:32.685Z,4.50
2022-11-21T11:23:28.719Z,4.50
2022-11-21T11:26:23.607Z,4.50
2022-11-21T11:29:16.376Z,4.50
2022-11-21T11:32:20.845Z,4.50
2022-11-21T11:35:15.438Z,4.60
2022-11-21T11:38:04.211Z,4.60
2022-11-21T11:40:52.030Z,4.50
2022-11-21T11:44:00.480Z,4.50
2022-11-21T11:47:12.375Z,4.50
2022-11-21T11:50:12.183Z,4.50
2022-11-21T11:53:03.540Z,4.40
2022-11-21T11:55:53.589Z,4.40
2022-11-21T11:58:44.451Z,4.40
2022-11-21T12:01:35.090Z,4.40
2022-11-21T12:04:23.145Z,4.30
2022-11-21T12:08:27.718Z,4.30
2022-11-21T12:10:26.165Z,4.30
2022-11-21T12:13:17.462Z,4.30
2022-11-21T12:16:13.229Z,4.30
2022-11-21T12:19:03.382Z,4.30
2022-11-21T12:21:50.518Z,4.30
2022-11-21T12:24:42.958Z,4.30
2022-11-21T12:27:32.295Z,4.20
2022-11-21T12:30:29.197Z,4.10
2022-11-21T12:33:20.650Z,4.00
2022-11-21T12:36:18.319Z,3.90
2022-11-21T12:39:33.425Z,3.80
2022-11-21T12:42:43.207Z,3.80
2022-11-21T12:45:32.402Z,3.80
2022-11-21T12:48:46.975Z,3.90
2022-11-21T12:52:10.081Z,3.90
2022-11-21T12:55:03.542Z,3.90
2022-11-21T12:57:58.775Z,4.00
2022-11-21T13:00:53.804Z,3.90
2022-11-21T13:03:45.341Z,4.00
2022-11-21T13:06:34.693Z,3.90
2022-11-21T13:09:23.365Z,3.90
2022-11-21T13:12:14.670Z,3.80
2022-11-21T13:15:09.652Z,3.80
2022-11-21T13:17:57.928Z,3.80
2022-11-21T13:20:47.901Z,3.80
2022-11-21T13:23:36.649Z,3.80
2022-11-21T13:26:43.097Z,3.80
2022-11-21T13:29:30.792Z,3.80
2022-11-21T13:32:36.109Z,3.70
2022-11-21T13:35:40.985Z,3.80
2022-11-21T13:38:29.652Z,3.80
2022-11-21T13:41:59.286Z,3.80
2022-11-21T13:44:47.020Z,3.80
2022-11-21T13:47:55.733Z,3.80
2022-11-21T13:50:51.641Z,3.80
2022-11-21T13:53:56.394Z,3.70
2022-11-21T13:56:55.227Z,3.70
2022-11-21T13:59:51.057Z,3.60
2022-11-21T14:02:50.378Z,3.60
2022-11-21T14:05:47.805Z,3.50
2022-11-21T14:08:36.552Z,3.50
2022-11-21T14:11:44.048Z,3.40
2022-11-21T14:14:37.455Z,3.40
2022-11-21T14:17:47.236Z,3.30
2022-11-21T14:20:49.405Z,3.30
2022-11-21T14:23:44.203Z,3.20
2022-11-21T14:26:40.333Z,3.20
2022-11-21T14:29:29.694Z,3.10
2022-11-21T14:32:17.776Z,3.00
2022-11-21T14:35:19.716Z,3.00
2022-11-21T14:38:07.890Z,3.00
2022-11-21T14:41:26.830Z,2.90
2022-11-21T14:44:21.244Z,2.80
2022-11-21T14:47:18.466Z,2.70
2022-11-21T14:50:24.596Z,2.60
2022-11-21T14:53:13.812Z,2.60
2022-11-21T14:56:02.067Z,2.50
2022-11-21T14:58:51.712Z,2.50
2022-11-21T15:01:46.222Z,2.40
2022-11-21T15:04:37.219Z,2.40
2022-11-21T15:07:31.581Z,2.40
2022-11-21T15:10:29.103Z,2.30
2022-11-21T15:13:20.317Z,2.30
2022-11-21T15:16:08.430Z,2.30
2022-11-21T15:18:57.690Z,2.30
2022-11-21T15:21:46.650Z,2.20
2022-11-21T15:24:41.803Z,2.10
2022-11-21T15:27:34.429Z,2.10
2022-11-21T15:30:27.824Z,2.10
2022-11-21T15:33:16.908Z,2.10
2022-11-21T15:36:15.065Z,2.00
2022-11-21T15:39:05.008Z,2.00
2022-11-21T15:41:52.420Z,1.90
2022-11-21T15:45:00.197Z,1.90
2022-11-21T15:47:47.901Z,1.80
2022-11-21T15:50:36.679Z,1.80
2022-11-21T15:53:25.629Z,1.60
2022-11-21T15:57:15.123Z,1.50
2022-11-21T15:59:23.958Z,1.50
2022-11-21T16:02:14.522Z,1.40
2022-11-21T16:05:02.213Z,1.30
2022-11-21T16:07:49.895Z,1.30
2022-11-21T16:10:39.253Z,1.30
2022-11-21T16:13:27.406Z,1.30
2022-11-21T16:16:15.353Z,1.20
2022-11-21T16:19:03.128Z,1.30
2022-11-21T16:21:50.816Z,1.20
2022-11-21T16:24:38.576Z,1.20
2022-11-21T16:27:27.862Z,1.20
2022-11-21T16:30:16.195Z,1.10
2022-11-21T16:33:04.072Z,1.10
2022-11-21T16:35:55.008Z,1.00
2022-11-21T16:38:44.489Z,1.00
2022-11-21T16:41:32.161Z,1.00
2022-11-21T16:44:21.121Z,1.00
2022-11-21T16:47:08.850Z,1.00
2022-11-21T16:49:56.630Z,1.00
2022-11-21T16:52:44.633Z,1.00
2022-11-21T16:55:32.652Z,1.00
2022-11-21T16:58:20.627Z,1.00
2022-11-21T17:01:14.416Z,1.00
2022-11-21T17:04:02.457Z,1.00
2022-11-21T17:06:50.048Z,1.00
2022-11-21T17:09:38.028Z,0.90
2022-11-21T17:12:25.620Z,0.90
2022-11-21T17:15:15.741Z,0.90
2022-11-21T17:18:05.118Z,0.80
2022-11-21T17:20:52.634Z,0.80
2022-11-21T17:23:43.550Z,0.80
2022-11-21T17:26:31.346Z,0.80
2022-11-21T17:29:19.267Z,0.80
2022-11-21T17:32:07.233Z,0.80
2022-11-21T17:34:56.893Z,0.80
2022-11-21T17:37:44.958Z,0.80
2022-11-21T17:40:32.660Z,0.80
2022-11-21T17:43:20.403Z,0.80
2022-11-21T17:46:10.924Z,0.80
2022-11-21T17:48:59.694Z,0.80
2022-11-21T17:51:52.451Z,0.70
2022-11-21T17:54:43.169Z,0.70
2022-11-21T17:57:30.982Z,0.70
2022-11-21T18:00:19.101Z,0.70
2022-11-21T18:03:06.967Z,0.70
2022-11-21T18:06:02.272Z,0.70
2022-11-21T18:08:51.169Z,0.70
2022-11-21T18:11:40.675Z,0.70
2022-11-21T18:14:29.276Z,0.70
2022-11-21T18:17:17.829Z,0.70
2022-11-21T18:20:06.308Z,0.70
2022-11-21T18:22:54.015Z,0.70
2022-11-21T18:25:43.416Z,0.80
2022-11-21T18:28:31.370Z,0.80
2022-11-21T18:31:20.504Z,0.80
2022-11-21T18:34:08.152Z,0.80
2022-11-21T18:36:55.852Z,0.80
2022-11-21T18:39:43.456Z,0.80
2022-11-21T18:42:34.463Z,0.80
2022-11-21T18:45:21.985Z,0.90
2022-11-21T18:48:09.499Z,0.90
2022-11-21T18:50:57.596Z,0.90
2022-11-21T18:53:45.923Z,0.90
2022-11-21T18:56:33.537Z,0.90
2022-11-21T18:59:22.975Z,0.90
2022-11-21T19:02:11.077Z,0.90
2022-11-21T19:04:58.896Z,0.80
2022-11-21T19:07:46.510Z,0.70
2022-11-21T19:10:43.292Z,0.70
2022-11-21T19:13:32.035Z,0.70
2022-11-21T19:16:24.426Z,0.70
2022-11-21T19:22:23.273Z,0.70
2022-11-21T19:25:11.227Z,0.60
2022-11-21T19:27:59.419Z,0.60
2022-11-21T19:30:47.382Z,0.60
2022-11-21T19:33:36.878Z,0.50
2022-11-21T19:36:26.028Z,0.50
2022-11-21T19:39:14.228Z,0.50
2022-11-21T19:42:01.821Z,0.50
2022-11-21T19:44:49.193Z,0.50
2022-11-21T19:47:37.498Z,0.50
2022-11-21T19:50:26.950Z,0.40
2022-11-21T19:53:14.921Z,0.30
2022-11-21T19:56:12.391Z,0.20
2022-11-21T19:59:00.368Z,0.20
2022-11-21T20:01:52.337Z,0.10
2022-11-21T20:04:40.659Z,0.00
2022-11-21T20:07:29.888Z,0.00
2022-11-21T20:10:18.519Z,-0.10
2022-11-21T20:13:06.179Z,-0.20
2022-11-21T20:15:54.083Z,-0.30
2022-11-21T20:18:41.922Z,-0.40
2022-11-21T20:21:29.988Z,-0.40
2022-11-21T20:24:19.155Z,-0.50
2022-11-21T20:27:07.053Z,-0.60
2022-11-21T20:29:54.979Z,-0.60
2022-11-21T20:32:42.436Z,-0.60
2022-11-21T20:35:29.627Z,-0.50
2022-11-21T20:38:22.988Z,-0.50
2022-11-21T20:41:13.004Z,-0.50
2022-11-21T20:47:09.691Z,-0.40
2022-11-21T20:49:57.242Z,-0.40
2022-11-21T20:55:51.985Z,-0.30
2022-11-21T20:58:41.463Z,-0.20
2022-11-21T21:01:28.969Z,-0.20
2022-11-21T21:04:16.719Z,-0.20
2022-11-21T21:07:04.622Z,-0.10
2022-11-21T21:09:53.583Z,-0.10
2022-11-21T21:12:47.281Z,0.00
2022-11-21T21:15:37.554Z,0.00
2022-11-21T21:18:25.187Z,0.00
2022-11-21T21:21:17.423Z,0.00
2022-11-21T21:24:05.655Z,0.10
2022-11-21T21:26:52.945Z,0.10
2022-11-21T21:29:40.188Z,0.10
2022-11-21T21:32:28.825Z,0.10
2022-11-21T21:35:18.663Z,0.20
2022-11-21T21:38:08.999Z,0.10
2022-11-21T21:40:56.546Z,0.20
2022-11-21T21:43:43.794Z,0.20
2022-11-21T21:46:31.022Z,0.20
2022-11-21T21:49:20.027Z,0.20
2022-11-21T21:52:07.285Z,0.30
2022-11-21T21:54:54.769Z,0.30
2022-11-21T21:57:47.182Z,0.30
2022-11-21T22:00:38.467Z,0.30
2022-11-21T22:03:25.780Z,0.40
2022-11-21T22:06:15.500Z,0.40
2022-11-21T22:09:03.460Z,0.40
2022-11-21T22:11:51.246Z,0.40
2022-11-21T22:14:38.557Z,0.30
2022-11-21T22:17:25.948Z,0.30
2022-11-21T22:20:13.458Z,0.40
2022-11-21T22:23:02.162Z,0.30
2022-11-21T22:25:50.019Z,0.30
2022-11-21T22:28:37.508Z,0.40
2022-11-21T22:31:25.039Z,0.40
2022-11-21T22:34:13.009Z,0.40
2022-11-21T22:37:00.448Z,0.40
2022-11-21T22:39:49.223Z,0.40
2022-11-21T22:42:36.458Z,0.50
2022-11-21T22:45:23.751Z,0.50
2022-11-21T22:48:11.082Z,0.50
2022-11-21T22:50:58.252Z,0.50
2022-11-21T22:53:46.471Z,0.50
2022-11-21T22:56:35.355Z,0.50
2022-11-21T22:59:23.067Z,0.50
2022-11-21T23:02:10.270Z,0.50
2022-11-21T23:04:58.731Z,0.50
2022-11-21T23:07:46.401Z,0.60
2022-11-21T23:10:33.952Z,0.60
2022-11-21T23:13:22.481Z,0.60
2022-11-21T23:16:10.525Z,0.60
2022-11-21T23:18:57.919Z,0.50
2022-11-21T23:21:45.883Z,0.50
2022-11-21T23:24:33.090Z,0.50
2022-11-21T23:27:20.301Z,0.50
2022-11-21T23:30:10.703Z,0.60
2022-11-21T23:32:58.190Z,0.50
2022-11-21T23:35:46.125Z,0.50
2022-11-21T23:38:33.440Z,0.50
2022-11-21T23:41:20.582Z,0.60
2022-11-21T23:44:08.022Z,0.50
2022-11-21T23:46:56.716Z,0.60
2022-11-21T23:49:48.888Z,0.50
2022-11-21T23:52:37.577Z,0.60
2022-11-21T23:55:24.930Z,0.60
2022-11-21T23:58:12.641Z,0.60
